Webcam

2021/10/23 06:50 EBBR 230650Z 19004KT CAVOK 06/05 Q1026 NOSIG

Webcam

--- Refresh now ---